Shell Fueler — WZW7217 — position and weather

sailwx.info

Track history (hours):
 
Tides and Currents Weather Stations Pressure Air Temp Water Temp Dewpoint Dewpoint Depression Visibility Wind Speed Wind Dir Waves Ship Positions

Shell Fueler

Owner: JOHN W STONE OIL DIST .LLC, GRETNA, LA. More information available from US FCC via Universal Licensing System and Coast Guard Vessel Documentation Center.

Last reported at 2015-Feb-28 13:19 UTC. Time now 2015-Feb-28 13:55 UTC.
Position N 29°55' W 090°04'.

Length 21 m; draft 2.5 m.

Type: Towing. MMSI: 366954210.

Date/timePositionNaut miles runAvg speedWind from/ knotsBaromVisibWave heightAir tempDewpointWater temp
2015-Feb-28 13:19N 29°55' W 090°04'0 0.4
2015-Feb-28 12:27N 29°56' W 090°03'0 0.0
2015-Feb-28 11:33N 29°56' W 090°03'0 0.0
2015-Feb-28 10:32N 29°56' W 090°03'0 0.0
2015-Feb-28 09:32N 29°56' W 090°03'0 0.0
2015-Feb-28 08:33N 29°56' W 090°03'0 0.0
2015-Feb-28 07:25N 29°56' W 090°03'0 0.0
2015-Feb-28 06:33N 29°56' W 090°03'0 0.0
2015-Feb-28 05:27N 29°56' W 090°03'0 0.0
2015-Feb-28 04:33N 29°56' W 090°03'0 0.0
2015-Feb-28 03:33N 29°56' W 090°03'0 0.0
2015-Feb-28 02:32N 29°56' W 090°03'0 0.0
2015-Feb-28 01:32N 29°56' W 090°03'2 1.5
2015-Feb-28 00:21N 29°55' W 090°05'48 4.0
2015-Feb-27 12:18N 29°33' W 090°55'4 5.8
2015-Feb-27 11:33N 29°36' W 090°58'5 5.5
2015-Feb-27 10:33N 29°38' W 091°05'5 4.7
2015-Feb-27 09:33N 29°41' W 091°09'3 2.7
2015-Feb-27 08:33N 29°41' W 091°12'5 4.8
2015-Feb-27 07:33N 29°39' W 091°17'5 5.1
2015-Feb-27 06:33N 29°39' W 091°22'5 5.1
2015-Feb-27 05:33N 29°41' W 091°28'5 4.8
2015-Feb-27 04:29N 29°43' W 091°33'  
2015-Feb-24 04:32N 29°45' W 091°35'5 5.3
2015-Feb-24 03:33N 29°42' W 091°30'5 5.1
2015-Feb-24 02:33N 29°39' W 091°25'5 5.2
2015-Feb-24 01:33N 29°38' W 091°19'5 5.3
2015-Feb-24 00:33N 29°41' W 091°13'4 4.2
2015-Feb-23 23:33N 29°41' W 091°09'4 4.3
2015-Feb-23 22:33N 29°38' W 091°05'55 3.4
2015-Feb-23 06:27N 29°50' W 090°03'0 0.0
2015-Feb-23 05:24N 29°50' W 090°03'0 0.0
2015-Feb-23 04:30N 29°50' W 090°03'5 0.4
2015-Feb-22 14:07N 29°55' W 090°04'0 0.1
2015-Feb-22 12:27N 29°55' W 090°04'0 0.0
2015-Feb-22 11:22N 29°55' W 090°04'0 0.0
2015-Feb-22 10:33N 29°55' W 090°04'0 0.0
2015-Feb-22 09:31N 29°55' W 090°04'0 0.1
2015-Feb-22 08:33N 29°55' W 090°04'0 0.1
2015-Feb-22 07:33N 29°55' W 090°04'0 0.0
2015-Feb-22 06:33N 29°55' W 090°04'0 0.0
2015-Feb-22 05:33N 29°55' W 090°04'0 0.3
2015-Feb-22 04:33N 29°56' W 090°04'0 0.1
2015-Feb-22 03:33N 29°56' W 090°04'2 2.0
2015-Feb-22 02:30N 29°57' W 090°03'3 2.9
2015-Feb-22 01:31N 29°60' W 090°01'0 0.0
2015-Feb-22 00:33N 29°60' W 090°01'0 0.0
2015-Feb-21 23:31N 29°60' W 090°01'0 0.0
2015-Feb-21 22:33N 29°60' W 090°01'0 0.0
2015-Feb-21 21:31N 29°60' W 090°01'0 0.0
2015-Feb-21 20:30N 29°60' W 090°01'0 0.0
2015-Feb-21 19:32N 29°60' W 090°01'0 0.0
2015-Feb-21 18:13N 29°60' W 090°01'0 0.0
2015-Feb-21 14:16N 29°60' W 090°01'2 2.6
2015-Feb-21 13:29N 29°58' W 090°02'0 0.4
2015-Feb-21 12:30N 29°57' W 090°02'0 0.0
2015-Feb-21 11:25N 29°57' W 090°02'0 0.0
2015-Feb-21 10:29N 29°57' W 090°02'0 0.0
2015-Feb-21 09:10N 29°57' W 090°02'0 0.0
2015-Feb-21 08:33N 29°57' W 090°02'1 1.3
2015-Feb-21 07:32N 29°58' W 090°03'2 2.0
2015-Feb-21 06:28N 29°55' W 090°04'0 0.1
2015-Feb-21 05:33N 29°56' W 090°04'0 0.0
2015-Feb-21 04:33N 29°56' W 090°04'0 0.0
2015-Feb-21 03:33N 29°56' W 090°04'1 1.4
2015-Feb-21 02:33N 29°57' W 090°03'0 0.0
2015-Feb-20 12:28N 29°57' W 090°04'1 0.8
2015-Feb-20 11:06N 29°56' W 090°04'0 0.0
2015-Feb-20 10:32N 29°56' W 090°04'0 0.0
2015-Feb-20 09:33N 29°56' W 090°04'0 0.0
2015-Feb-20 08:31N 29°56' W 090°04'0 0.0
2015-Feb-20 07:32N 29°56' W 090°04'0 0.0
2015-Feb-20 06:32N 29°56' W 090°04'0 0.0
2015-Feb-20 05:28N 29°56' W 090°04'3 3.0
2015-Feb-20 04:31N 29°54' W 090°07'2 0.1
2015-Feb-19 08:30N 29°56' W 090°08'4 3.7
2015-Feb-19 07:27N 29°56' W 090°04'0 0.2
2015-Feb-19 06:32N 29°56' W 090°04'0 0.3
2015-Feb-19 05:33N 29°55' W 090°04'3 3.0
2015-Feb-19 04:27N 29°56' W 090°00'  
Track history (hours):
 
Tides and Currents Weather Stations Pressure Air Temp Water Temp Dewpoint Dewpoint Depression Visibility Wind Speed Wind Dir Waves Ship Positions

Shell Fueler

Owner: JOHN W STONE OIL DIST .LLC, GRETNA, LA. More information available from US FCC via Universal Licensing System and Coast Guard Vessel Documentation Center.

Last reported at 2015-Feb-28 13:19 UTC. Time now 2015-Feb-28 13:55 UTC.
Position N 29°55' W 090°04'.

Length 21 m; draft 2.5 m.

Type: Towing. MMSI: 366954210.

Date/timePositionNaut miles runAvg speedWind from/ knotsBaromVisibWave heightAir tempDewpointWater temp
2015-Feb-28 13:19N 29°55' W 090°04'0 0.4
2015-Feb-28 12:27N 29°56' W 090°03'0 0.0
2015-Feb-28 11:33N 29°56' W 090°03'0 0.0
2015-Feb-28 10:32N 29°56' W 090°03'0 0.0
2015-Feb-28 09:32N 29°56' W 090°03'0 0.0
2015-Feb-28 08:33N 29°56' W 090°03'0 0.0
2015-Feb-28 07:25N 29°56' W 090°03'0 0.0
2015-Feb-28 06:33N 29°56' W 090°03'0 0.0
2015-Feb-28 05:27N 29°56' W 090°03'0 0.0
2015-Feb-28 04:33N 29°56' W 090°03'0 0.0
2015-Feb-28 03:33N 29°56' W 090°03'0 0.0
2015-Feb-28 02:32N 29°56' W 090°03'0 0.0
2015-Feb-28 01:32N 29°56' W 090°03'2 1.5
2015-Feb-28 00:21N 29°55' W 090°05'48 4.0
2015-Feb-27 12:18N 29°33' W 090°55'4 5.8
2015-Feb-27 11:33N 29°36' W 090°58'5 5.5
2015-Feb-27 10:33N 29°38' W 091°05'5 4.7
2015-Feb-27 09:33N 29°41' W 091°09'3 2.7
2015-Feb-27 08:33N 29°41' W 091°12'5 4.8
2015-Feb-27 07:33N 29°39' W 091°17'5 5.1
2015-Feb-27 06:33N 29°39' W 091°22'5 5.1
2015-Feb-27 05:33N 29°41' W 091°28'5 4.8
2015-Feb-27 04:29N 29°43' W 091°33'  
2015-Feb-24 04:32N 29°45' W 091°35'5 5.3
2015-Feb-24 03:33N 29°42' W 091°30'5 5.1
2015-Feb-24 02:33N 29°39' W 091°25'5 5.2
2015-Feb-24 01:33N 29°38' W 091°19'5 5.3
2015-Feb-24 00:33N 29°41' W 091°13'4 4.2
2015-Feb-23 23:33N 29°41' W 091°09'4 4.3
2015-Feb-23 22:33N 29°38' W 091°05'55 3.4
2015-Feb-23 06:27N 29°50' W 090°03'0 0.0
2015-Feb-23 05:24N 29°50' W 090°03'0 0.0
2015-Feb-23 04:30N 29°50' W 090°03'5 0.4
2015-Feb-22 14:07N 29°55' W 090°04'0 0.1
2015-Feb-22 12:27N 29°55' W 090°04'0 0.0
2015-Feb-22 11:22N 29°55' W 090°04'0 0.0
2015-Feb-22 10:33N 29°55' W 090°04'0 0.0
2015-Feb-22 09:31N 29°55' W 090°04'0 0.1
2015-Feb-22 08:33N 29°55' W 090°04'0 0.1
2015-Feb-22 07:33N 29°55' W 090°04'0 0.0
2015-Feb-22 06:33N 29°55' W 090°04'0 0.0
2015-Feb-22 05:33N 29°55' W 090°04'0 0.3
2015-Feb-22 04:33N 29°56' W 090°04'0 0.1
2015-Feb-22 03:33N 29°56' W 090°04'2 2.0
2015-Feb-22 02:30N 29°57' W 090°03'3 2.9
2015-Feb-22 01:31N 29°60' W 090°01'0 0.0
2015-Feb-22 00:33N 29°60' W 090°01'0 0.0
2015-Feb-21 23:31N 29°60' W 090°01'0 0.0
2015-Feb-21 22:33N 29°60' W 090°01'0 0.0
2015-Feb-21 21:31N 29°60' W 090°01'0 0.0
2015-Feb-21 20:30N 29°60' W 090°01'0 0.0
2015-Feb-21 19:32N 29°60' W 090°01'0 0.0
2015-Feb-21 18:13N 29°60' W 090°01'0 0.0
2015-Feb-21 14:16N 29°60' W 090°01'2 2.6
2015-Feb-21 13:29N 29°58' W 090°02'0 0.4
2015-Feb-21 12:30N 29°57' W 090°02'0 0.0
2015-Feb-21 11:25N 29°57' W 090°02'0 0.0
2015-Feb-21 10:29N 29°57' W 090°02'0 0.0
2015-Feb-21 09:10N 29°57' W 090°02'0 0.0
2015-Feb-21 08:33N 29°57' W 090°02'1 1.3
2015-Feb-21 07:32N 29°58' W 090°03'2 2.0
2015-Feb-21 06:28N 29°55' W 090°04'0 0.1
2015-Feb-21 05:33N 29°56' W 090°04'0 0.0
2015-Feb-21 04:33N 29°56' W 090°04'0 0.0
2015-Feb-21 03:33N 29°56' W 090°04'1 1.4
2015-Feb-21 02:33N 29°57' W 090°03'0 0.0
2015-Feb-20 12:28N 29°57' W 090°04'1 0.8
2015-Feb-20 11:06N 29°56' W 090°04'0 0.0
2015-Feb-20 10:32N 29°56' W 090°04'0 0.0
2015-Feb-20 09:33N 29°56' W 090°04'0 0.0
2015-Feb-20 08:31N 29°56' W 090°04'0 0.0
2015-Feb-20 07:32N 29°56' W 090°04'0 0.0
2015-Feb-20 06:32N 29°56' W 090°04'0 0.0
2015-Feb-20 05:28N 29°56' W 090°04'3 3.0
2015-Feb-20 04:31N 29°54' W 090°07'2 0.1
2015-Feb-19 08:30N 29°56' W 090°08'4 3.7
2015-Feb-19 07:27N 29°56' W 090°04'0 0.2
2015-Feb-19 06:32N 29°56' W 090°04'0 0.3
2015-Feb-19 05:33N 29°55' W 090°04'3 3.0
2015-Feb-19 04:27N 29°56' W 090°00'  

Dump ship's entire track history